Bonavista, Canada
Current Conditions -  °F | °C
As of 3:19 PM on Thursday 18 Dec 2014 (Local Time) from CYQX Reporting Station
Drizzle Drizzle  
Wind Chill: 26°   Ceiling: 200
Heat Index: 36°   Visibility: 0.75mi
Dew Point: 36°   Wind: 15mph
Humidity: 100%   Direction: 110°ESE
Pressure: 29.79"   Gusts: NA
Location:  48.65°N, 53.11°W
Report Text: CYQX 181819Z 11013KT 3/4SM R03/P6000FT/N R13/P6000FT/D -DZ BR OVC002 02/02 A2979 RMK FG6SF2 SLP094
Loading
Personal Weather Stations






























Interactive Weather Map New forecast layout! Learn more

10-Day Weather Forecast

Advertisements
Track Severe Weather on mobile